Time;durP1;ratioP1;P1;durP2;ratioP2;P2;SDS_P1;SDS_P2;PMS_P1;PMS_P2;Temp;Humidity;BMP_temperature;BMP_pressure;BME280_temperature;BME280_humidity;BME280_pressure;Samples;Min_cycle;Max_cycle;Signal;HPM_P1;HPM_P2
2023/03/30 00:02:17;;;;;;;19.77;8.50;;;;;;;0.45;50.29;98333.78;10399484;28;20060;-52
2023/03/30 00:07:17;;;;;;;15.63;8.48;;;;;;;0.22;50.87;98348.00;10403908;28;20064;-52
2023/03/30 00:12:19;;;;;;;16.08;9.68;;;;;;;0.07;51.59;98357.41;10401699;28;20541;-52
2023/03/30 00:17:18;;;;;;;12.95;7.75;;;;;;;0.05;50.85;98359.03;10403870;28;20127;-52
2023/03/30 00:22:17;;;;;;;12.38;6.40;;;;;;;0.10;51.12;98351.59;10401843;28;20115;-52
2023/03/30 00:27:16;;;;;;;14.93;6.00;;;;;;;0.15;50.70;98353.59;10402399;28;20048;-50
2023/03/30 00:32:15;;;;;;;11.88;6.05;;;;;;;0.12;50.70;98350.88;10402424;28;20098;-51
2023/03/30 00:37:15;;;;;;;9.48;5.75;;;;;;;0.11;51.13;98335.50;10406753;28;20025;-51
2023/03/30 00:42:15;;;;;;;11.85;5.63;;;;;;;0.12;51.29;98347.44;10408141;28;20071;-52
2023/03/30 00:47:15;;;;;;;29.42;16.20;;;;;;;0.10;51.67;98344.84;10405298;28;21177;-52
2023/03/30 00:52:18;;;;;;;18.35;9.40;;;;;;;0.05;52.53;98342.06;10406844;28;20071;-50
2023/03/30 00:57:20;;;;;;;15.57;8.38;;;;;;;0.04;52.39;98347.06;10403636;28;20075;-52
2023/03/30 01:02:20;;;;;;;15.90;7.35;;;;;;;-0.08;52.20;98343.91;10411138;28;20561;-51
2023/03/30 01:07:23;;;;;;;15.55;7.97;;;;;;;-0.25;52.96;98345.59;10411334;28;20071;-50
2023/03/30 01:12:22;;;;;;;17.38;9.07;;;;;;;-0.22;53.00;98353.41;10413056;28;20069;-50
2023/03/30 01:17:39;;;;;;;17.45;9.82;;;;;;;-0.24;52.56;98342.25;10412442;28;20064;-52
2023/03/30 01:23:05;;;;;;;20.20;10.05;;;;;;;-0.18;52.61;98340.03;10409515;28;20060;-51
2023/03/30 01:28:24;;;;;;;21.88;11.43;;;;;;;-0.26;53.19;98339.63;10412955;28;20459;-52
2023/03/30 01:33:41;;;;;;;21.70;12.38;;;;;;;-0.29;52.93;98348.81;10411753;28;20107;-52
2023/03/30 01:38:43;;;;;;;23.40;11.55;;;;;;;-0.30;53.43;98353.00;10406997;28;20123;-52
2023/03/30 01:44:18;;;;;;;26.67;13.23;;;;;;;-0.37;54.04;98339.09;10407752;28;20067;-50
2023/03/30 01:49:19;;;;;;;25.58;15.27;;;;;;;-0.27;53.93;98354.88;10382490;28;20115;-52
2023/03/30 01:54:23;;;;;;;20.83;12.30;;;;;;;-0.27;54.24;98352.31;10408610;28;20127;-51
2023/03/30 01:59:30;;;;;;;23.00;12.38;;;;;;;-0.23;54.54;98359.31;10407016;28;20115;-52
2023/03/30 02:04:37;;;;;;;27.15;15.05;;;;;;;-0.28;54.28;98358.19;10410237;28;20123;-52
2023/03/30 02:09:40;;;;;;;26.75;14.88;;;;;;;-0.24;54.66;98352.47;10407818;28;20071;-52
2023/03/30 02:14:40;;;;;;;27.50;13.93;;;;;;;-0.21;54.37;98360.25;10410065;28;20055;-53
2023/03/30 02:19:40;;;;;;;23.45;14.43;;;;;;;-0.52;54.31;98296.63;10409179;28;20116;-52
2023/03/30 02:24:42;;;;;;;28.13;15.02;;;;;;;-0.29;54.31;98341.16;10436170;28;20087;-54
2023/03/30 02:29:43;;;;;;;35.67;16.88;;;;;;;-0.24;55.11;98352.47;10408020;28;20067;-51
2023/03/30 02:35:05;;;;;;;42.63;21.45;;;;;;;-0.70;55.81;98302.53;10409333;28;20064;-50
2023/03/30 02:40:35;;;;;;;45.63;23.40;;;;;;;-0.37;55.25;98349.28;10408974;28;20076;-52
2023/03/30 02:45:46;;;;;;;39.88;20.73;;;;;;;-0.43;56.07;98361.72;10427605;28;20508;-52
2023/03/30 02:50:53;;;;;;;47.97;25.95;;;;;;;-0.51;56.92;98360.47;10449511;28;20098;-52
2023/03/30 02:56:05;;;;;;;42.38;24.25;;;;;;;-0.51;56.42;98365.56;10419399;28;20072;-50
2023/03/30 03:01:18;;;;;;;42.03;22.77;;;;;;;-0.54;56.60;98360.28;10406800;28;20213;-50
2023/03/30 03:06:19;;;;;;;101.13;51.30;;;;;;;-0.69;57.45;98359.50;10407576;28;20052;-52
2023/03/30 03:11:18;;;;;;;37.63;19.10;;;;;;;-0.73;57.48;98361.00;10389657;28;20068;-51
2023/03/30 03:16:17;;;;;;;37.20;19.10;;;;;;;-0.73;57.43;98377.97;10406898;28;20035;-53
2023/03/30 03:21:16;;;;;;;30.02;15.23;;;;;;;-0.80;57.32;98367.44;10406870;28;20071;-52
2023/03/30 03:26:15;;;;;;;23.42;11.23;;;;;;;-0.86;57.87;98377.31;10421859;28;20028;-52
2023/03/30 03:31:14;;;;;;;19.17;11.20;;;;;;;-0.84;57.53;98370.63;10406480;28;20517;-53
2023/03/30 03:36:14;;;;;;;19.20;10.70;;;;;;;-0.84;57.84;98372.28;10406944;28;20663;-50
2023/03/30 03:41:13;;;;;;;20.08;12.10;;;;;;;-0.84;58.03;98379.91;10407260;28;20079;-53
2023/03/30 03:46:14;;;;;;;21.55;12.95;;;;;;;-0.78;58.21;98381.94;10405190;28;20032;-52
2023/03/30 03:51:13;;;;;;;29.02;17.45;;;;;;;-0.73;58.86;98385.59;10405975;28;20059;-52
2023/03/30 03:56:13;;;;;;;;;;;;;;;-0.66;58.12;98372.38;10406758;28;20510;-51
2023/03/30 04:01:13;;;;;;;31.10;17.35;;;;;;;-0.61;58.75;98381.16;10405380;28;20010;-51
2023/03/30 04:06:12;;;;;;;33.22;18.83;;;;;;;-0.42;58.96;98380.44;10406281;28;20099;-51
2023/03/30 04:11:12;;;;;;;60.65;24.98;;;;;;;-0.27;58.51;98370.16;10372214;28;20147;-52
2023/03/30 04:16:11;;;;;;;54.15;30.17;;;;;;;-0.40;59.09;98344.00;10396682;28;20120;-52
2023/03/30 04:21:11;;;;;;;43.75;25.13;;;;;;;-0.38;59.04;98362.81;10404890;28;20127;-52
2023/03/30 04:26:12;;;;;;;40.33;20.75;;;;;;;-0.25;59.45;98388.94;10404724;28;20123;-50
2023/03/30 04:31:11;;;;;;;34.13;19.55;;;;;;;-0.09;59.25;98385.50;10405000;28;20462;-51
2023/03/30 04:36:16;;;;;;;39.45;20.85;;;;;;;0.14;58.13;98389.22;10409781;28;20552;-52
2023/03/30 04:41:15;;;;;;;41.47;21.55;;;;;;;0.35;58.21;98399.63;10412990;28;20067;-53
2023/03/30 04:46:14;;;;;;;53.92;26.00;;;;;;;0.54;57.58;98404.81;10412218;28;20024;-51
2023/03/30 04:51:13;;;;;;;;;;;;;;;0.71;57.72;98404.78;10410292;28;20768;-51
2023/03/30 04:56:12;;;;;;;56.25;26.50;;;;;;;0.97;56.67;98416.25;10410429;28;20733;-51
2023/03/30 05:01:11;;;;;;;54.17;29.13;;;;;;;1.13;56.72;98416.19;10411651;28;20704;-50
2023/03/30 05:06:11;;;;;;;45.03;27.27;;;;;;;1.24;56.44;98414.09;10411245;28;20036;-51
2023/03/30 05:11:10;;;;;;;91.18;56.65;;;;;;;1.14;56.30;98417.91;10412257;28;20071;-51
2023/03/30 05:16:09;;;;;;;32.80;18.77;;;;;;;1.10;56.45;98423.69;10412449;28;20107;-49
2023/03/30 05:21:08;;;;;;;31.85;18.50;;;;;;;1.01;57.07;98420.69;10410196;28;20759;-50
2023/03/30 05:26:07;;;;;;;30.35;17.33;;;;;;;1.08;57.20;98407.38;10411175;28;20744;-49
2023/03/30 05:31:06;;;;;;;31.70;15.80;;;;;;;1.24;57.47;98420.06;10410367;28;20040;-51
2023/03/30 05:36:05;;;;;;;36.60;17.58;;;;;;;1.33;56.74;98424.75;10413323;28;20047;-51
2023/03/30 05:41:05;;;;;;;27.25;13.68;;;;;;;1.61;55.29;98423.44;10414257;28;20067;-51
2023/03/30 05:46:05;;;;;;;23.75;12.85;;;;;;;1.79;54.92;98428.53;10411683;28;20071;-52
2023/03/30 05:51:05;;;;;;;37.88;24.13;;;;;;;2.07;52.76;98438.28;10414028;28;20056;-51
2023/03/30 05:56:04;;;;;;;;;;;;;;;1.22;52.76;98328.78;10413744;28;20067;-51
2023/03/30 06:01:04;;;;;;;20.08;10.27;;;;;;;2.25;52.44;98438.19;10412618;28;19917;-49
2023/03/30 06:06:04;;;;;;;15.00;8.57;;;;;;;2.64;51.56;98443.22;10405824;28;20132;-48
2023/03/30 06:11:03;;;;;;;16.35;9.68;;;;;;;2.85;50.15;98436.41;10408545;28;20083;-52
2023/03/30 06:16:02;;;;;;;22.02;11.93;;;;;;;3.08;49.39;98441.59;10406564;28;20544;-49
2023/03/30 06:21:05;;;;;;;18.60;10.65;;;;;;;3.16;48.56;98429.94;10408627;28;20493;-53
2023/03/30 06:26:06;;;;;;;20.95;11.85;;;;;;;3.47;48.73;98446.50;10407029;28;20430;-51
2023/03/30 06:31:09;;;;;;;19.10;11.32;;;;;;;3.76;48.35;98445.03;10407245;28;20537;-49
2023/03/30 06:36:10;;;;;;;21.55;11.48;;;;;;;4.10;46.91;98447.13;10405042;28;20494;-49
2023/03/30 06:41:11;;;;;;;17.08;9.00;;;;;;;4.25;46.18;98447.69;10404608;28;20118;-51
2023/03/30 06:46:11;;;;;;;18.50;10.32;;;;;;;4.63;44.91;98448.09;10404076;28;20107;-50
2023/03/30 06:51:11;;;;;;;24.30;13.40;;;;;;;5.03;44.46;98453.72;10404745;28;20500;-52
2023/03/30 06:56:11;;;;;;;19.30;8.68;;;;;;;5.32;44.36;98452.06;10406862;28;20139;-51
2023/03/30 07:01:14;;;;;;;20.45;7.95;;;;;;;5.72;44.05;98463.59;10407890;28;20090;-50
2023/03/30 07:06:14;;;;;;;14.13;6.28;;;;;;;5.97;43.09;98458.28;10404654;28;20064;-52
2023/03/30 07:11:13;;;;;;;11.35;6.80;;;;;;;6.18;40.39;98459.72;10406372;28;20126;-52
2023/03/30 07:16:12;;;;;;;23.52;7.35;;;;;;;6.44;42.62;98459.56;10407039;28;20051;-51
2023/03/30 07:21:11;;;;;;;13.13;7.05;;;;;;;6.66;40.31;98449.00;10406728;28;20021;-52
2023/03/30 07:26:10;;;;;;;11.18;6.97;;;;;;;6.95;40.56;98431.63;10405848;28;20020;-52
2023/03/30 07:31:13;;;;;;;12.15;7.13;;;;;;;7.33;39.50;98443.69;10405944;28;20783;-52
2023/03/30 07:36:12;;;;;;;11.48;6.78;;;;;;;7.51;38.18;98439.00;10406266;28;20116;-51
2023/03/30 07:41:12;;;;;;;;;;;;;;;7.61;36.71;98428.00;10406910;28;20075;-52
2023/03/30 07:46:11;;;;;;;12.15;6.80;;;;;;;7.56;38.31;98427.03;10401609;28;20631;-51
2023/03/30 07:51:12;;;;;;;;;;;;;;;7.92;39.32;98430.34;10403561;28;20067;-52
2023/03/30 07:56:11;;;;;;;13.68;6.75;;;;;;;8.05;36.89;98420.31;10402464;28;19959;-52
2023/03/30 08:01:10;;;;;;;11.65;5.75;;;;;;;7.95;35.78;98414.94;10399761;28;20101;-51
2023/03/30 08:06:10;;;;;;;9.75;5.35;;;;;;;7.77;35.75;98399.94;10402980;28;20036;-53
2023/03/30 08:11:10;;;;;;;10.13;5.95;;;;;;;7.91;35.96;98375.22;10392063;28;20104;-51
2023/03/30 08:16:10;;;;;;;13.60;7.05;;;;;;;8.62;35.85;98407.53;10398306;28;20454;-52
2023/03/30 08:21:09;;;;;;;17.33;7.63;;;;;;;9.16;34.12;98393.78;10398143;28;20119;-52
2023/03/30 08:26:08;;;;;;;14.23;9.20;;;;;;;9.04;34.13;98384.06;10400484;28;20071;-52
2023/03/30 08:31:09;;;;;;;12.60;8.75;;;;;;;9.27;35.04;98379.22;10398805;28;20454;-53
2023/03/30 08:36:08;;;;;;;14.80;9.88;;;;;;;9.59;35.12;98380.56;10401461;28;20586;-53
2023/03/30 08:41:42;;;;;;;18.02;10.25;;;;;;;9.72;34.89;98382.44;10404151;28;20032;-53
2023/03/30 08:46:43;;;;;;;17.17;9.73;;;;;;;10.12;33.52;98382.91;10315180;28;20561;-54
2023/03/30 08:51:45;;;;;;;20.00;10.30;;;;;;;10.17;33.94;98369.16;10397666;28;20621;-53
2023/03/30 08:56:58;;;;;;;14.82;8.25;;;;;;;9.97;33.87;98344.72;10403861;28;20082;-53
2023/03/30 09:02:02;;;;;;;13.02;7.65;;;;;;;9.78;33.62;98370.44;10401361;28;20549;-53
2023/03/30 09:07:08;;;;;;;9.57;5.13;;;;;;;9.82;33.87;98350.63;10402948;28;20119;-53
2023/03/30 09:12:18;;;;;;;10.30;4.78;;;;;;;9.70;34.10;98353.94;10401993;28;20104;-51
2023/03/30 09:17:21;;;;;;;10.73;5.32;;;;;;;9.45;34.59;98310.44;10397643;28;20136;-53
2023/03/30 09:22:26;;;;;;;7.50;4.50;;;;;;;9.96;34.25;98320.53;10407363;28;20115;-53
2023/03/30 09:27:46;;;;;;;8.27;4.95;;;;;;;9.83;34.87;98266.81;10408491;28;20103;-53
2023/03/30 09:33:08;;;;;;;;;;;;;;;9.73;35.62;98187.25;10406637;28;20079;-50
2023/03/30 09:38:12;;;;;;;10.15;6.53;;;;;;;10.58;35.22;98296.00;10402280;28;19963;-54
2023/03/30 09:43:24;;;;;;;9.88;5.22;;;;;;;10.64;36.19;98269.25;10409936;28;20063;-54
2023/03/30 09:48:23;;;;;;;8.88;4.68;;;;;;;10.51;36.05;98278.66;10408310;28;20071;-53
2023/03/30 09:53:24;;;;;;;9.23;4.53;;;;;;;10.50;37.09;98274.34;10410240;28;20035;-53
2023/03/30 09:58:28;;;;;;;6.75;4.97;;;;;;;10.61;37.34;98269.19;10409085;28;20064;-54
2023/03/30 10:03:27;;;;;;;7.43;4.70;;;;;;;10.93;37.12;98243.47;10409971;28;20072;-53
2023/03/30 10:08:26;;;;;;;4.55;2.67;;;;;;;11.42;36.75;98261.03;10408532;28;20060;-54
2023/03/30 10:13:35;;;;;;;4.93;2.72;;;;;;;11.30;37.01;98254.06;10409176;28;20056;-53
2023/03/30 10:18:37;;;;;;;5.13;2.58;;;;;;;11.33;37.35;98235.88;10408017;28;20091;-54
2023/03/30 10:23:43;;;;;;;4.90;3.20;;;;;;;11.60;37.44;98232.50;10408360;28;20056;-54
2023/03/30 10:28:55;;;;;;;5.93;2.88;;;;;;;12.08;37.08;98228.22;10407096;28;20080;-51
2023/03/30 10:33:59;;;;;;;6.47;2.47;;;;;;;12.37;36.39;98185.78;10401198;28;20068;-51
2023/03/30 10:39:30;;;;;;;4.68;2.58;;;;;;;12.73;35.87;98215.19;10405586;28;20171;-51
2023/03/30 10:44:33;;;;;;;5.47;3.10;;;;;;;12.78;35.39;98137.94;10402800;28;21331;-54
2023/03/30 10:50:15;;;;;;;5.05;2.63;;;;;;;13.51;35.54;98199.25;10406818;28;20052;-52
2023/03/30 10:55:24;;;;;;;5.03;2.35;;;;;;;14.36;35.53;98186.50;10353061;28;20148;-51
2023/03/30 11:00:30;;;;;;;;;;;;;;;15.00;33.09;98184.09;10405826;28;20123;-52
2023/03/30 11:05:36;;;;;;;3.28;2.40;;;;;;;15.11;32.95;98169.16;10407472;28;19947;-55
2023/03/30 11:10:42;;;;;;;4.03;2.92;;;;;;;15.05;32.60;98158.78;10406081;28;20059;-53
2023/03/30 11:15:48;;;;;;;3.92;2.75;;;;;;;15.39;32.25;98156.59;10406944;28;20056;-53
2023/03/30 11:21:04;;;;;;;4.25;2.00;;;;;;;15.78;30.66;98151.66;10397470;28;20196;-54
2023/03/30 11:26:08;;;;;;;4.22;2.70;;;;;;;15.32;30.81;98141.00;10398034;28;20119;-53
2023/03/30 11:31:52;;;;;;;3.78;1.90;;;;;;;14.93;32.23;98145.88;10398995;28;20140;-53
2023/03/30 11:37:26;;;;;;;8.27;3.15;;;;;;;15.32;32.67;98133.16;10317517;28;20582;-53
2023/03/30 11:42:29;;;;;;;9.57;4.18;;;;;;;15.63;32.51;98126.59;10393378;28;20123;-53
2023/03/30 11:47:31;;;;;;;6.63;2.60;;;;;;;15.66;31.08;98123.91;10404243;28;20072;-53
2023/03/30 11:52:43;;;;;;;3.25;1.88;;;;;;;15.53;30.99;98125.00;10404134;28;20119;-53
2023/03/30 11:58:20;;;;;;;7.43;3.40;;;;;;;15.61;30.76;98109.19;10399223;28;21635;-53
2023/03/30 12:03:37;;;;;;;3.85;2.13;;;;;;;15.52;30.77;98099.72;10405983;28;20069;-53
2023/03/30 12:08:46;;;;;;;5.68;2.67;;;;;;;15.11;31.42;98100.31;10403719;28;20119;-54
2023/03/30 12:13:45;;;;;;;3.95;2.60;;;;;;;15.22;32.14;98088.84;10401433;28;20111;-54
2023/03/30 12:19:05;;;;;;;4.45;2.47;;;;;;;15.24;31.33;98065.28;10404399;28;20112;-54
2023/03/30 12:24:26;;;;;;;4.82;2.10;;;;;;;15.36;31.44;98065.09;10405813;28;20072;-54
2023/03/30 12:29:47;;;;;;;5.22;3.28;;;;;;;15.11;31.21;98058.50;10401189;28;20119;-52
2023/03/30 12:34:46;;;;;;;4.30;2.40;;;;;;;14.70;32.22;98002.44;10405019;28;20086;-53
2023/03/30 12:40:08;;;;;;;3.60;1.95;;;;;;;15.07;31.96;98044.63;10404122;28;20060;-52
2023/03/30 12:45:32;;;;;;;3.05;2.13;;;;;;;14.92;31.67;98023.91;10405201;28;20080;-54
2023/03/30 12:50:44;;;;;;;3.60;2.30;;;;;;;14.85;31.82;98019.66;10404856;28;20099;-54
2023/03/30 12:56:06;;;;;;;3.10;2.20;;;;;;;14.81;31.99;98017.09;10408679;28;20068;-52
2023/03/30 13:01:33;;;;;;;4.50;2.55;;;;;;;15.04;32.08;98002.84;10412084;28;20080;-55
2023/03/30 13:06:51;;;;;;;4.13;2.10;;;;;;;15.14;31.79;98001.81;10411583;28;20052;-54
2023/03/30 13:11:53;;;;;;;6.97;2.67;;;;;;;15.25;32.24;97994.69;10411330;28;20075;-55
2023/03/30 13:16:52;;;;;;;6.53;4.05;;;;;;;15.62;30.90;97982.72;10411183;28;20056;-52
2023/03/30 13:21:56;;;;;;;;;;;;;;;16.00;31.49;97971.59;10411649;28;20106;-54
2023/03/30 13:27:12;;;;;;;8.23;3.22;;;;;;;16.39;29.73;97969.06;10410820;28;19955;-54
2023/03/30 13:32:23;;;;;;;6.63;2.30;;;;;;;16.59;29.82;97952.06;10410543;28;20120;-54
2023/03/30 13:37:56;;;;;;;10.20;2.90;;;;;;;17.08;30.94;97954.44;10410227;28;20055;-54
2023/03/30 13:43:18;;;;;;;2.30;2.10;;;;;;;16.96;29.65;97935.50;10409825;28;20128;-53
2023/03/30 13:48:29;;;;;;;13.15;3.00;;;;;;;17.41;29.92;97941.41;10409784;28;20119;-54
2023/03/30 13:53:40;;;;;;;3.58;2.42;;;;;;;17.52;29.40;97935.91;10407797;28;20120;-54
2023/03/30 13:58:45;;;;;;;4.70;2.67;;;;;;;17.62;29.63;97924.25;10409529;28;20120;-54
2023/03/30 14:03:55;;;;;;;8.63;3.20;;;;;;;17.74;28.83;97923.91;10408676;28;20067;-54
2023/03/30 14:09:19;;;;;;;9.75;2.75;;;;;;;17.90;30.23;97932.25;10407859;28;20048;-54
2023/03/30 14:14:33;;;;;;;5.60;2.83;;;;;;;18.02;30.45;97923.19;10409073;28;20059;-53
2023/03/30 14:19:35;;;;;;;5.53;3.50;;;;;;;18.04;29.16;97923.16;10408753;28;20063;-54
2023/03/30 14:24:34;;;;;;;8.27;3.33;;;;;;;17.77;29.00;97892.34;10408403;28;20072;-54
2023/03/30 14:29:43;;;;;;;5.00;3.10;;;;;;;17.91;29.95;97922.63;10408280;28;20502;-54
2023/03/30 14:34:46;;;;;;;10.03;3.80;;;;;;;17.91;30.09;97935.75;10408528;28;20071;-54
2023/03/30 14:39:56;;;;;;;6.45;4.10;;;;;;;17.71;29.52;97902.16;10408239;28;20068;-54
2023/03/30 14:44:56;;;;;;;10.60;5.90;;;;;;;17.33;29.65;97896.13;10407974;28;20075;-54
2023/03/30 14:50:01;;;;;;;7.90;4.90;;;;;;;17.07;29.95;97884.53;10405047;28;20048;-54
2023/03/30 14:55:01;;;;;;;7.20;4.22;;;;;;;16.83;30.31;97883.38;10407866;28;20067;-54
2023/03/30 15:00:13;;;;;;;8.82;6.15;;;;;;;16.59;31.10;97886.56;10405923;28;20119;-53
2023/03/30 15:05:16;;;;;;;6.28;4.43;;;;;;;16.67;31.13;97879.38;10406677;28;20060;-54
2023/03/30 15:10:32;;;;;;;11.30;4.97;;;;;;;16.77;31.18;97880.03;10405818;28;20052;-54
2023/03/30 15:15:32;;;;;;;5.80;4.20;;;;;;;15.94;31.21;97735.31;10377500;28;20095;-53
2023/03/30 15:20:31;;;;;;;8.82;5.55;;;;;;;16.59;31.18;97865.63;10406041;28;20131;-54
2023/03/30 15:25:32;;;;;;;7.45;5.05;;;;;;;16.59;30.51;97852.50;10377055;28;20071;-55
2023/03/30 15:30:35;;;;;;;7.32;3.80;;;;;;;15.90;30.66;97739.75;10404437;28;20060;-53
2023/03/30 15:35:36;;;;;;;6.00;4.00;;;;;;;16.63;31.23;97846.28;10404479;28;20071;-53
2023/03/30 15:40:36;;;;;;;7.85;4.13;;;;;;;16.65;30.77;97841.88;10404117;28;20056;-53
2023/03/30 15:45:35;;;;;;;5.30;3.63;;;;;;;16.51;30.91;97837.84;10404748;28;20071;-53
2023/03/30 15:50:35;;;;;;;7.78;4.60;;;;;;;16.37;30.53;97832.06;10404300;28;20071;-53
2023/03/30 15:55:39;;;;;;;7.50;4.45;;;;;;;16.14;30.72;97823.84;10404128;28;20079;-53
2023/03/30 16:00:38;;;;;;;10.50;5.43;;;;;;;16.02;30.63;97827.59;10403456;28;20815;-54
2023/03/30 16:05:37;;;;;;;10.00;5.00;;;;;;;15.83;30.95;97819.28;10403763;28;20541;-52
2023/03/30 16:10:36;;;;;;;;;;;;;;;15.65;31.58;97816.13;10404921;28;20512;-52
2023/03/30 16:15:35;;;;;;;11.23;8.47;;;;;;;15.49;31.55;97814.72;10401307;28;20310;-53
2023/03/30 16:20:34;;;;;;;8.35;5.80;;;;;;;15.20;31.41;97808.28;10401558;28;20483;-53
2023/03/30 16:25:33;;;;;;;;;;;;;;;15.12;31.54;97831.09;10399592;28;20868;-53
2023/03/30 16:30:36;;;;;;;9.30;4.20;;;;;;;14.98;31.35;97827.84;10403020;28;19964;-52
2023/03/30 16:35:36;;;;;;;9.82;5.68;;;;;;;14.73;31.45;97798.66;10408016;28;20060;-53
2023/03/30 16:40:38;;;;;;;9.93;6.85;;;;;;;14.59;32.02;97833.69;10406333;28;20580;-53
2023/03/30 16:45:38;;;;;;;26.08;9.60;;;;;;;14.43;32.79;97827.00;10406924;28;20115;-52
2023/03/30 16:50:39;;;;;;;17.67;9.40;;;;;;;13.97;34.01;97775.47;10408905;28;20410;-52
2023/03/30 16:55:39;;;;;;;33.33;20.88;;;;;;;14.06;35.51;97835.34;10406467;28;20124;-52
2023/03/30 17:00:46;;;;;;;44.10;24.17;;;;;;;13.78;36.24;97824.41;10408387;28;20128;-52
2023/03/30 17:05:50;;;;;;;36.85;22.00;;;;;;;13.58;36.82;97835.06;10405258;28;20140;-52
2023/03/30 17:10:51;;;;;;;33.20;20.23;;;;;;;13.38;37.43;97837.88;10404133;28;20123;-53
2023/03/30 17:15:50;;;;;;;28.13;16.30;;;;;;;13.02;37.54;97800.03;10407233;28;20541;-52
2023/03/30 17:20:52;;;;;;;;;;;;;;;13.06;38.07;97838.22;10408288;28;20124;-52
2023/03/30 17:25:53;;;;;;;20.42;12.05;;;;;;;12.83;38.53;97820.19;10402787;28;20015;-51
2023/03/30 17:30:54;;;;;;;19.92;10.93;;;;;;;12.59;39.18;97813.44;10406872;28;20124;-53
2023/03/30 17:35:59;;;;;;;14.00;9.13;;;;;;;12.52;39.33;97830.84;10406599;28;20055;-53
2023/03/30 17:40:58;;;;;;;13.45;8.85;;;;;;;12.42;39.29;97809.25;10403903;28;20098;-53
2023/03/30 17:45:57;;;;;;;15.93;10.77;;;;;;;12.19;39.70;97772.09;10406601;28;20067;-53
2023/03/30 17:50:56;;;;;;;44.67;29.75;;;;;;;12.33;40.00;97809.31;10405576;28;20369;-53
2023/03/30 17:55:55;;;;;;;34.50;21.88;;;;;;;12.09;42.20;97807.72;10405996;28;20482;-52
2023/03/30 18:00:54;;;;;;;33.60;25.92;;;;;;;12.08;42.35;97801.63;10405493;28;20478;-52
2023/03/30 18:05:54;;;;;;;25.13;17.40;;;;;;;12.11;41.66;97808.56;10406391;28;20447;-53
2023/03/30 18:10:58;;;;;;;29.50;18.98;;;;;;;12.16;41.29;97801.59;10404161;28;20558;-53
2023/03/30 18:15:59;;;;;;;28.33;18.98;;;;;;;12.22;40.89;97804.13;10405580;28;20064;-53
2023/03/30 18:21:03;;;;;;;44.90;32.65;;;;;;;12.21;41.49;97798.97;10403864;28;20584;-51
2023/03/30 18:26:05;;;;;;;44.42;30.45;;;;;;;12.17;41.53;97785.09;10403366;28;20083;-52
2023/03/30 18:31:04;;;;;;;52.22;28.08;;;;;;;12.24;41.98;97791.97;10404357;28;20059;-52
2023/03/30 18:36:06;;;;;;;73.75;47.83;;;;;;;12.20;42.43;97794.63;10404859;28;20051;-52
2023/03/30 18:41:05;;;;;;;45.00;30.08;;;;;;;12.16;42.66;97787.69;10403781;28;20119;-52
2023/03/30 18:46:04;;;;;;;;;;;;;;;12.06;43.27;97787.78;10404401;28;20064;-52
2023/03/30 18:51:03;;;;;;;35.50;22.02;;;;;;;12.08;43.10;97780.81;10301274;28;19923;-52
2023/03/30 18:56:02;;;;;;;29.55;17.17;;;;;;;11.54;43.06;97683.25;10371334;28;20133;-52
2023/03/30 19:01:01;;;;;;;28.35;16.73;;;;;;;12.08;42.96;97766.94;10403530;28;20612;-52
2023/03/30 19:06:00;;;;;;;40.00;23.75;;;;;;;12.04;42.70;97765.22;10402822;28;20593;-54
2023/03/30 19:10:59;;;;;;;53.92;27.52;;;;;;;12.06;43.53;97758.28;10402071;28;20525;-50
2023/03/30 19:15:59;;;;;;;37.42;22.83;;;;;;;12.03;43.92;97763.53;10402710;28;20525;-51
2023/03/30 19:20:58;;;;;;;173.50;104.47;;;;;;;12.00;42.87;97755.75;10401560;28;20548;-49
2023/03/30 19:25:57;;;;;;;76.72;47.95;;;;;;;12.04;43.43;97760.03;10400448;28;20512;-52
2023/03/30 19:31:05;;;;;;;79.13;45.72;;;;;;;11.85;44.32;97767.97;10401659;28;20410;-51
2023/03/30 19:36:06;;;;;;;40.78;24.38;;;;;;;11.89;43.92;97755.81;10401790;28;20068;-52
2023/03/30 19:41:06;;;;;;;49.55;26.13;;;;;;;11.92;44.15;97749.72;10401346;28;20123;-52
2023/03/30 19:46:05;;;;;;;44.45;22.88;;;;;;;11.64;44.40;97703.09;10401569;28;20087;-52
2023/03/30 19:51:04;;;;;;;37.35;21.15;;;;;;;11.93;44.57;97744.53;10401507;28;20489;-52
2023/03/30 19:56:09;;;;;;;45.90;30.58;;;;;;;11.83;45.18;97735.91;10401085;28;20432;-52
2023/03/30 20:01:08;;;;;;;38.63;24.70;;;;;;;11.67;45.70;97731.69;10401470;28;20454;-52
2023/03/30 20:06:11;;;;;;;36.40;19.65;;;;;;;11.63;45.72;97725.63;10401660;28;21165;-51
2023/03/30 20:11:11;;;;;;;31.98;19.70;;;;;;;11.20;46.40;97657.47;10401982;28;20512;-52
2023/03/30 20:16:21;;;;;;;35.25;23.45;;;;;;;11.13;46.83;97682.59;10401327;28;20585;-51
2023/03/30 20:21:22;;;;;;;30.40;20.95;;;;;;;11.44;47.25;97734.41;10402270;28;20075;-52
2023/03/30 20:26:21;;;;;;;44.80;28.75;;;;;;;11.25;47.58;97718.03;10401717;28;20318;-50
2023/03/30 20:31:20;;;;;;;40.10;23.63;;;;;;;11.28;47.59;97727.53;10400590;28;20569;-50
2023/03/30 20:36:20;;;;;;;44.35;29.67;;;;;;;10.89;47.78;97669.69;10383000;28;20046;-52
2023/03/30 20:41:20;;;;;;;36.33;23.50;;;;;;;11.21;48.31;97726.69;10401499;28;20771;-49
2023/03/30 20:46:20;;;;;;;45.25;29.15;;;;;;;11.20;47.91;97720.66;10401722;28;20064;-52
2023/03/30 20:51:21;;;;;;;46.95;28.92;;;;;;;11.20;49.20;97725.00;10400423;28;20497;-51
2023/03/30 20:56:20;;;;;;;47.28;32.13;;;;;;;11.19;49.21;97718.03;10401152;28;20538;-52
2023/03/30 21:01:26;;;;;;;53.92;34.97;;;;;;;11.22;49.46;97705.03;10400952;28;20521;-54
2023/03/30 21:06:27;;;;;;;51.22;33.10;;;;;;;11.27;49.86;97705.91;10400438;28;20135;-52
2023/03/30 21:11:27;;;;;;;42.78;30.13;;;;;;;11.27;49.57;97694.63;10400601;28;20462;-52
2023/03/30 21:16:27;;;;;;;45.75;30.75;;;;;;;11.24;50.46;97692.91;10403446;28;20080;-52
2023/03/30 21:21:25;;;;;;;;;;;;;;;11.14;49.05;97696.44;10408095;28;20494;-52
2023/03/30 21:26:25;;;;;;;54.03;34.72;;;;;;;11.12;49.45;97688.63;10408021;28;20394;-52
2023/03/30 21:31:24;;;;;;;50.78;32.03;;;;;;;11.13;49.92;97685.19;10407322;28;20588;-53
2023/03/30 21:36:23;;;;;;;52.08;35.17;;;;;;;11.07;49.89;97677.41;10408117;28;20374;-52
2023/03/30 21:41:24;;;;;;;52.90;34.92;;;;;;;10.92;51.11;97670.56;10407530;28;20050;-52
2023/03/30 21:46:25;;;;;;;45.47;31.55;;;;;;;10.85;50.99;97666.22;10407482;28;20072;-52
2023/03/30 21:51:27;;;;;;;38.33;25.27;;;;;;;10.86;50.96;97659.28;10407385;28;20063;-52
2023/03/30 21:56:28;;;;;;;35.85;23.20;;;;;;;10.90;50.53;97650.66;10407177;28;20486;-53
2023/03/30 22:01:27;;;;;;;37.10;26.15;;;;;;;10.83;49.53;97616.03;10405958;28;20119;-52
2023/03/30 22:06:26;;;;;;;46.47;30.05;;;;;;;10.60;49.64;97629.97;10406296;28;20116;-52
2023/03/30 22:11:25;;;;;;;42.22;28.17;;;;;;;10.62;49.88;97622.19;10403794;28;20581;-52
2023/03/30 22:16:31;;;;;;;43.20;27.83;;;;;;;10.57;49.74;97623.94;10402511;28;20332;-52
2023/03/30 22:21:33;;;;;;;44.10;28.27;;;;;;;10.20;50.54;97617.09;10402272;28;20135;-52
2023/03/30 22:26:33;;;;;;;30.65;20.58;;;;;;;9.91;53.05;97613.66;10400148;28;20128;-52
2023/03/30 22:31:32;;;;;;;28.80;18.88;;;;;;;9.88;52.92;97614.53;10403436;28;20505;-51
2023/03/30 22:36:32;;;;;;;25.85;17.27;;;;;;;9.67;54.63;97625.75;10406836;28;20450;-52
2023/03/30 22:41:30;;;;;;;29.00;19.52;;;;;;;9.44;55.13;97619.69;10408940;28;20060;-52
2023/03/30 22:46:29;;;;;;;30.27;17.63;;;;;;;9.31;55.90;97627.44;10405773;28;20019;-51
2023/03/30 22:51:29;;;;;;;28.33;17.75;;;;;;;9.25;55.91;97609.25;10408181;28;20039;-51
2023/03/30 22:56:28;;;;;;;;;;;;;;;9.17;55.88;97604.97;10407143;28;20067;-51
2023/03/30 23:01:30;;;;;;;28.17;18.42;;;;;;;9.12;56.13;97608.38;10407094;28;19924;-51
2023/03/30 23:06:30;;;;;;;29.83;18.77;;;;;;;9.02;56.97;97595.41;10405849;28;20592;-50
2023/03/30 23:11:31;;;;;;;38.28;23.60;;;;;;;8.92;56.74;97592.78;10408161;28;20215;-51
2023/03/30 23:16:34;;;;;;;48.10;29.35;;;;;;;8.84;56.78;97573.81;10407743;28;20052;-51
2023/03/30 23:21:34;;;;;;;45.92;29.08;;;;;;;8.65;57.28;97559.09;10397929;28;20124;-52
2023/03/30 23:26:33;;;;;;;40.30;26.95;;;;;;;8.86;56.93;97563.47;10385548;28;20941;-52